sensor_id;sensor_type;location;lat;lon;timestamp;pressure;altitude;pressure_sealevel;temperature;humidity
43818;BME280;29868;47.360;18.984;2023-12-04T08:28:15;61080.94;;;-2.76;100.00
43818;BME280;29868;47.360;18.984;2023-12-04T08:30:40;61086.19;;;-2.73;100.00
43818;BME280;29868;47.360;18.984;2023-12-04T08:33:06;61082.59;;;-2.74;100.00
43818;BME280;29868;47.360;18.984;2023-12-04T08:35:31;61091.31;;;-2.61;100.00
43818;BME280;29868;47.360;18.984;2023-12-04T08:37:57;61126.38;;;-2.36;100.00
43818;BME280;29868;47.360;18.984;2023-12-04T08:40:22;61128.03;;;-2.34;100.00
43818;BME280;29868;47.360;18.984;2023-12-04T08:42:47;61115.38;;;-2.46;100.00
43818;BME280;29868;47.360;18.984;2023-12-04T08:45:13;61117.25;;;-2.42;100.00
43818;BME280;29868;47.360;18.984;2023-12-04T08:47:38;61112.88;;;-2.46;100.00
43818;BME280;29868;47.360;18.984;2023-12-04T08:50:04;61121.88;;;-2.35;100.00
43818;BME280;29868;47.360;18.984;2023-12-04T08:52:30;61137.63;;;-2.23;100.00
43818;BME280;29868;47.360;18.984;2023-12-04T08:54:56;61143.69;;;-2.17;100.00
43818;BME280;29868;47.360;18.984;2023-12-04T08:57:21;61145.88;;;-2.15;100.00
43818;BME280;29868;47.360;18.984;2023-12-04T08:59:47;61166.81;;;-1.96;100.00
43818;BME280;29868;47.360;18.984;2023-12-04T09:02:12;61174.59;;;-1.93;100.00
43818;BME280;29868;47.360;18.984;2023-12-04T09:04:37;61175.63;;;-1.88;100.00
43818;BME280;29868;47.360;18.984;2023-12-04T09:07:03;61191.69;;;-1.78;100.00
43818;BME280;29868;47.360;18.984;2023-12-04T09:09:28;61192.78;;;-1.77;100.00
43818;BME280;29868;47.360;18.984;2023-12-04T09:11:54;61198.50;;;-1.69;100.00
43818;BME280;29868;47.360;18.984;2023-12-04T09:14:19;61203.72;;;-1.62;100.00
43818;BME280;29868;47.360;18.984;2023-12-04T09:16:45;61213.72;;;-1.57;100.00
43818;BME280;29868;47.360;18.984;2023-12-04T09:19:10;61226.63;;;-1.43;100.00
43818;BME280;29868;47.360;18.984;2023-12-04T09:21:35;61239.84;;;-1.31;100.00
43818;BME280;29868;47.360;18.984;2023-12-04T09:24:01;61259.69;;;-1.12;100.00
43818;BME280;29868;47.360;18.984;2023-12-04T09:26:26;61259.69;;;-1.12;100.00
43818;BME280;29868;47.360;18.984;2023-12-04T09:28:52;61263.00;;;-1.09;100.00
43818;BME280;29868;47.360;18.984;2023-12-04T09:31:17;61267.94;;;-1.05;100.00
43818;BME280;29868;47.360;18.984;2023-12-04T09:33:43;61277.00;;;-0.94;100.00
43818;BME280;29868;47.360;18.984;2023-12-04T09:36:08;61288.91;;;-0.85;100.00
43818;BME280;29868;47.360;18.984;2023-12-04T09:38:34;61291.03;;;-0.79;100.00
43818;BME280;29868;47.360;18.984;2023-12-04T09:41:01;61305.75;;;-0.72;100.00
43818;BME280;29868;47.360;18.984;2023-12-04T09:43:34;61315.59;;;-0.58;100.00
43818;BME280;29868;47.360;18.984;2023-12-04T09:46:00;61323.09;;;-0.54;100.00
43818;BME280;29868;47.360;18.984;2023-12-04T09:48:26;61341.59;;;-0.39;100.00
43818;BME280;29868;47.360;18.984;2023-12-04T09:50:53;61339.06;;;-0.39;100.00
43818;BME280;29868;47.360;18.984;2023-12-04T09:53:19;61344.81;;;-0.31;100.00
43818;BME280;29868;47.360;18.984;2023-12-04T09:55:48;61354.06;;;-0.30;100.00
43818;BME280;29868;47.360;18.984;2023-12-04T09:58:14;61360.38;;;-0.21;100.00
43818;BME280;29868;47.360;18.984;2023-12-04T10:00:42;61365.25;;;-0.12;100.00
43818;BME280;29868;47.360;18.984;2023-12-04T10:03:08;61376.59;;;-0.04;100.00
43818;BME280;29868;47.360;18.984;2023-12-04T10:05:33;61382.91;;;0.04;100.00
43818;BME280;29868;47.360;18.984;2023-12-04T10:07:58;61387.88;;;0.09;100.00
43818;BME280;29868;47.360;18.984;2023-12-04T10:10:24;61389.84;;;0.08;100.00
43818;BME280;29868;47.360;18.984;2023-12-04T10:12:50;61405.63;;;0.20;100.00
43818;BME280;29868;47.360;18.984;2023-12-04T10:15:16;61413.91;;;0.28;100.00
43818;BME280;29868;47.360;18.984;2023-12-04T10:17:42;61423.28;;;0.37;100.00
43818;BME280;29868;47.360;18.984;2023-12-04T10:20:14;61423.53;;;0.39;100.00
43818;BME280;29868;47.360;18.984;2023-12-04T10:22:59;61431.03;;;0.44;100.00
43818;BME280;29868;47.360;18.984;2023-12-04T10:25:26;61437.88;;;0.53;100.00
43818;BME280;29868;47.360;18.984;2023-12-04T10:27:54;61425.97;;;0.44;100.00
43818;BME280;29868;47.360;18.984;2023-12-04T10:30:25;61448.03;;;0.64;100.00
43818;BME280;29868;47.360;18.984;2023-12-04T10:32:55;61458.00;;;0.73;100.00
43818;BME280;29868;47.360;18.984;2023-12-04T10:35:21;61447.81;;;0.62;100.00
43818;BME280;29868;47.360;18.984;2023-12-04T10:37:48;61458.31;;;0.71;100.00
43818;BME280;29868;47.360;18.984;2023-12-04T10:40:22;61482.06;;;0.93;100.00
43818;BME280;29868;47.360;18.984;2023-12-04T10:42:48;61469.69;;;0.80;100.00
43818;BME280;29868;47.360;18.984;2023-12-04T10:45:13;61468.81;;;0.81;100.00
43818;BME280;29868;47.360;18.984;2023-12-04T10:47:39;61479.94;;;0.87;100.00
43818;BME280;29868;47.360;18.984;2023-12-04T10:50:05;61473.78;;;0.86;100.00
43818;BME280;29868;47.360;18.984;2023-12-04T10:52:33;61467.94;;;0.83;100.00
43818;BME280;29868;47.360;18.984;2023-12-04T10:54:59;61486.28;;;0.95;100.00
43818;BME280;29868;47.360;18.984;2023-12-04T10:57:33;61495.09;;;1.03;100.00
43818;BME280;29868;47.360;18.984;2023-12-04T11:00:03;61494.78;;;1.05;100.00
43818;BME280;29868;47.360;18.984;2023-12-04T11:02:35;61516.09;;;1.23;100.00
43818;BME280;29868;47.360;18.984;2023-12-04T11:05:08;61528.03;;;1.31;100.00
43818;BME280;29868;47.360;18.984;2023-12-04T11:07:41;61518.00;;;1.27;100.00
43818;BME280;29868;47.360;18.984;2023-12-04T11:10:10;61529.03;;;1.37;100.00
43818;BME280;29868;47.360;18.984;2023-12-04T11:12:39;61519.56;;;1.33;100.00
43818;BME280;29868;47.360;18.984;2023-12-04T11:15:09;61542.84;;;1.50;100.00
43818;BME280;29868;47.360;18.984;2023-12-04T11:17:42;61532.34;;;1.40;100.00
43818;BME280;29868;47.360;18.984;2023-12-04T11:20:11;61520.19;;;1.29;100.00
43818;BME280;29868;47.360;18.984;2023-12-04T11:22:40;61523.50;;;1.32;100.00
43818;BME280;29868;47.360;18.984;2023-12-04T11:25:06;61541.53;;;1.46;100.00
43818;BME280;29868;47.360;18.984;2023-12-04T11:27:34;61533.78;;;1.39;100.00
43818;BME280;29868;47.360;18.984;2023-12-04T11:30:01;61529.03;;;1.37;100.00
43818;BME280;29868;47.360;18.984;2023-12-04T11:32:28;61540.31;;;1.50;100.00
43818;BME280;29868;47.360;18.984;2023-12-04T11:34:55;61542.06;;;1.46;100.00
43818;BME280;29868;47.360;18.984;2023-12-04T11:37:22;61553.69;;;1.57;100.00
43818;BME280;29868;47.360;18.984;2023-12-04T11:39:49;61559.75;;;1.63;100.00
43818;BME280;29868;47.360;18.984;2023-12-04T11:42:33;61565.84;;;1.68;100.00
43818;BME280;29868;47.360;18.984;2023-12-04T11:44:59;61544.50;;;1.51;100.00
43818;BME280;29868;47.360;18.984;2023-12-04T11:47:24;61539.53;;;1.46;100.00
43818;BME280;29868;47.360;18.984;2023-12-04T11:49:52;61535.66;;;1.43;100.00
43818;BME280;29868;47.360;18.984;2023-12-04T11:52:32;61562.53;;;1.65;100.00
43818;BME280;29868;47.360;18.984;2023-12-04T11:55:00;61567.50;;;1.70;100.00
43818;BME280;29868;47.360;18.984;2023-12-04T11:57:32;61557.78;;;1.63;100.00
43818;BME280;29868;47.360;18.984;2023-12-04T12:03:06;61553.91;;;1.60;100.00
43818;BME280;29868;47.360;18.984;2023-12-04T12:05:34;61544.50;;;1.51;100.00
43818;BME280;29868;47.360;18.984;2023-12-04T12:08:03;61555.03;;;1.61;100.00
43818;BME280;29868;47.360;18.984;2023-12-04T12:10:29;61556.91;;;1.65;100.00
43818;BME280;29868;47.360;18.984;2023-12-04T12:12:55;61560.53;;;1.66;100.00
43818;BME280;29868;47.360;18.984;2023-12-04T12:15:21;61562.75;;;1.68;100.00
43818;BME280;29868;47.360;18.984;2023-12-04T12:17:47;61557.78;;;1.63;100.00
43818;BME280;29868;47.360;18.984;2023-12-04T12:20:14;61553.69;;;1.57;100.00
43818;BME280;29868;47.360;18.984;2023-12-04T12:22:40;61575.03;;;1.75;100.00
43818;BME280;29868;47.360;18.984;2023-12-04T12:25:09;61568.38;;;1.68;100.00
43818;BME280;29868;47.360;18.984;2023-12-04T12:27:34;61568.28;;;1.73;100.00
43818;BME280;29868;47.360;18.984;2023-12-04T12:30:00;61571.38;;;1.74;100.00
43818;BME280;29868;47.360;18.984;2023-12-04T12:32:29;61559.53;;;1.60;100.00
43818;BME280;29868;47.360;18.984;2023-12-04T12:34:54;61560.78;;;1.68;100.00
43818;BME280;29868;47.360;18.984;2023-12-04T12:37:20;61567.75;;;1.73;100.00
43818;BME280;29868;47.360;18.984;2023-12-04T12:39:46;61574.69;;;1.77;100.00
43818;BME280;29868;47.360;18.984;2023-12-04T12:42:11;61573.59;;;1.76;100.00
43818;BME280;29868;47.360;18.984;2023-12-04T12:44:45;61570.72;;;1.78;100.00
43818;BME280;29868;47.360;18.984;2023-12-04T12:47:10;61558.09;;;1.61;100.00
43818;BME280;29868;47.360;18.984;2023-12-04T12:49:38;61555.34;;;1.59;100.00
43818;BME280;29868;47.360;18.984;2023-12-04T12:52:06;61543.09;;;1.52;100.00
43818;BME280;29868;47.360;18.984;2023-12-04T12:54:39;61549.25;;;1.53;100.00
43818;BME280;29868;47.360;18.984;2023-12-04T12:57:05;61554.00;;;1.55;100.00
43818;BME280;29868;47.360;18.984;2023-12-04T12:59:30;61548.63;;;1.57;100.00
43818;BME280;29868;47.360;18.984;2023-12-04T13:01:56;61542.31;;;1.49;100.00
43818;BME280;29868;47.360;18.984;2023-12-04T13:04:41;61536.56;;;1.41;100.00
43818;BME280;29868;47.360;18.984;2023-12-04T13:07:07;61542.63;;;1.47;100.00
43818;BME280;29868;47.360;18.984;2023-12-04T13:09:33;61539.00;;;1.46;100.00
43818;BME280;29868;47.360;18.984;2023-12-04T13:11:58;61518.31;;;1.25;100.00
43818;BME280;29868;47.360;18.984;2023-12-04T13:14:25;61515.56;;;1.22;100.00
43818;BME280;29868;47.360;18.984;2023-12-04T13:16:50;61507.41;;;1.21;100.00
43818;BME280;29868;47.360;18.984;2023-12-04T13:19:16;61505.28;;;1.15;100.00
43818;BME280;29868;47.360;18.984;2023-12-04T13:21:43;61505.59;;;1.13;100.00
43818;BME280;29868;47.360;18.984;2023-12-04T13:24:09;61505.81;;;1.15;100.00
43818;BME280;29868;47.360;18.984;2023-12-04T13:26:35;61509.78;;;1.14;100.00
43818;BME280;29868;47.360;18.984;2023-12-04T13:29:00;61497.78;;;1.10;100.00
43818;BME280;29868;47.360;18.984;2023-12-04T13:31:27;61503.59;;;1.13;100.00
43818;BME280;29868;47.360;18.984;2023-12-04T13:33:53;61487.03;;;0.98;100.00
43818;BME280;29868;47.360;18.984;2023-12-04T13:36:18;61491.44;;;1.02;100.00
43818;BME280;29868;47.360;18.984;2023-12-04T13:38:44;61480.09;;;0.94;100.00
43818;BME280;29868;47.360;18.984;2023-12-04T13:41:09;61490.69;;;0.99;100.00
43818;BME280;29868;47.360;18.984;2023-12-04T13:44:04;61482.06;;;0.93;100.00
43818;BME280;29868;47.360;18.984;2023-12-04T13:46:29;61480.09;;;0.94;100.00
43818;BME280;29868;47.360;18.984;2023-12-04T13:48:58;61480.72;;;0.90;100.00
43818;BME280;29868;47.360;18.984;2023-12-04T13:51:24;61481.50;;;0.93;100.00
43818;BME280;29868;47.360;18.984;2023-12-04T13:53:50;61487.13;;;0.93;100.00
43818;BME280;29868;47.360;18.984;2023-12-04T13:56:20;61480.97;;;0.92;100.00
43818;BME280;29868;47.360;18.984;2023-12-04T13:58:47;61480.19;;;0.89;100.00
43818;BME280;29868;47.360;18.984;2023-12-04T14:01:15;61484.06;;;0.93;100.00
43818;BME280;29868;47.360;18.984;2023-12-04T14:03:45;61474.13;;;0.84;100.00
43818;BME280;29868;47.360;18.984;2023-12-04T14:06:10;61469.69;;;0.80;100.00
43818;BME280;29868;47.360;18.984;2023-12-04T14:08:37;61461.97;;;0.72;100.00
43818;BME280;29868;47.360;18.984;2023-12-04T14:11:04;61453.09;;;0.64;100.00
43818;BME280;29868;47.360;18.984;2023-12-04T14:13:31;61448.38;;;0.62;100.00
43818;BME280;29868;47.360;18.984;2023-12-04T14:15:57;61452.34;;;0.61;100.00
43818;BME280;29868;47.360;18.984;2023-12-04T14:18:23;61429.59;;;0.45;100.00
43818;BME280;29868;47.360;18.984;2023-12-04T14:20:49;61435.78;;;0.46;100.00
43818;BME280;29868;47.360;18.984;2023-12-04T14:23:14;61429.38;;;0.42;100.00
43818;BME280;29868;47.360;18.984;2023-12-04T14:25:40;61428.81;;;0.42;100.00
43818;BME280;29868;47.360;18.984;2023-12-04T14:28:06;61421.00;;;0.39;100.00
43818;BME280;29868;47.360;18.984;2023-12-04T14:30:32;61422.19;;;0.36;100.00
43818;BME280;29868;47.360;18.984;2023-12-04T14:32:57;61411.63;;;0.31;100.00
43818;BME280;29868;47.360;18.984;2023-12-04T14:35:23;61395.59;;;0.16;100.00
43818;BME280;29868;47.360;18.984;2023-12-04T14:37:49;61404.84;;;0.17;100.00
43818;BME280;29868;47.360;18.984;2023-12-04T14:40:15;61392.28;;;0.13;100.00
43818;BME280;29868;47.360;18.984;2023-12-04T14:42:41;61395.13;;;0.11;100.00
43818;BME280;29868;47.360;18.984;2023-12-04T14:45:07;61382.44;;;-0.01;100.00
43818;BME280;29868;47.360;18.984;2023-12-04T14:47:32;61382.44;;;-0.01;100.00
43818;BME280;29868;47.360;18.984;2023-12-04T14:49:59;61380.25;;;-0.03;100.00
43818;BME280;29868;47.360;18.984;2023-12-04T14:52:24;61374.72;;;-0.08;100.00
43818;BME280;29868;47.360;18.984;2023-12-04T14:54:53;61372.81;;;-0.12;100.00
43818;BME280;29868;47.360;18.984;2023-12-04T14:57:34;61361.81;;;-0.22;100.00
43818;BME280;29868;47.360;18.984;2023-12-04T15:00:06;61370.94;;;-0.16;100.00
43818;BME280;29868;47.360;18.984;2023-12-04T15:02:51;61357.84;;;-0.21;100.00
43818;BME280;29868;47.360;18.984;2023-12-04T15:05:16;61352.00;;;-0.25;100.00
43818;BME280;29868;47.360;18.984;2023-12-04T15:08:00;61352.66;;;-0.29;100.00
43818;BME280;29868;47.360;18.984;2023-12-04T15:10:34;61364.00;;;-0.20;100.00
43818;BME280;29868;47.360;18.984;2023-12-04T15:13:18;61360.69;;;-0.23;100.00
43818;BME280;29868;47.360;18.984;2023-12-04T15:15:58;61348.78;;;-0.32;100.00
43818;BME280;29868;47.360;18.984;2023-12-04T15:18:26;61350.44;;;-0.31;100.00
43818;BME280;29868;47.360;18.984;2023-12-04T15:21:10;61351.75;;;-0.27;100.00
43818;BME280;29868;47.360;18.984;2023-12-04T15:23:36;61355.31;;;-0.21;100.00
43818;BME280;29868;47.360;18.984;2023-12-04T15:26:02;61355.97;;;-0.26;100.00
43818;BME280;29868;47.360;18.984;2023-12-04T15:28:27;61350.91;;;-0.26;100.00
43818;BME280;29868;47.360;18.984;2023-12-04T15:30:53;61355.88;;;-0.21;100.00
43818;BME280;29868;47.360;18.984;2023-12-04T15:33:21;61358.72;;;-0.23;100.00
43818;BME280;29868;47.360;18.984;2023-12-04T15:35:48;61346.03;;;-0.35;100.00
43818;BME280;29868;47.360;18.984;2023-12-04T15:38:14;61352.09;;;-0.29;100.00
43818;BME280;29868;47.360;18.984;2023-12-04T15:40:39;61352.09;;;-0.29;100.00
43818;BME280;29868;47.360;18.984;2023-12-04T15:43:04;61346.03;;;-0.35;100.00
43818;BME280;29868;47.360;18.984;2023-12-04T15:45:30;61343.28;;;-0.37;100.00
43818;BME280;29868;47.360;18.984;2023-12-04T15:47:55;61339.97;;;-0.40;100.00
43818;BME280;29868;47.360;18.984;2023-12-04T15:50:21;61336.97;;;-0.45;100.00
43818;BME280;29868;47.360;18.984;2023-12-04T15:52:48;61330.25;;;-0.47;100.00
43818;BME280;29868;47.360;18.984;2023-12-04T15:55:13;61331.13;;;-0.48;100.00
43818;BME280;29868;47.360;18.984;2023-12-04T15:57:39;61338.28;;;-0.42;100.00
43818;BME280;29868;47.360;18.984;2023-12-04T16:00:05;61344.38;;;-0.36;100.00
43818;BME280;29868;47.360;18.984;2023-12-04T16:02:40;61343.59;;;-0.39;100.00
43818;BME280;29868;47.360;18.984;2023-12-04T16:05:07;61339.63;;;-0.38;100.00
43818;BME280;29868;47.360;18.984;2023-12-04T16:07:33;61332.13;;;-0.43;100.00
43818;BME280;29868;47.360;18.984;2023-12-04T16:09:58;61324.97;;;-0.50;100.00
43818;BME280;29868;47.360;18.984;2023-12-04T16:12:24;61329.16;;;-0.48;100.00
43818;BME280;29868;47.360;18.984;2023-12-04T16:14:49;61328.38;;;-0.51;100.00
43818;BME280;29868;47.360;18.984;2023-12-04T16:17:14;61324.19;;;-0.53;100.00
43818;BME280;29868;47.360;18.984;2023-12-04T16:19:40;61325.84;;;-0.51;100.00
43818;BME280;29868;47.360;18.984;2023-12-04T16:22:05;61318.13;;;-0.58;100.00
43818;BME280;29868;47.360;18.984;2023-12-04T16:24:32;61313.47;;;-0.65;100.00
43818;BME280;29868;47.360;18.984;2023-12-04T16:26:58;61309.00;;;-0.64;100.00
43818;BME280;29868;47.360;18.984;2023-12-04T16:29:23;61302.38;;;-0.70;100.00
43818;BME280;29868;47.360;18.984;2023-12-04T16:31:58;61298.59;;;-0.79;100.00
43818;BME280;29868;47.360;18.984;2023-12-04T16:34:23;61288.91;;;-0.85;100.00
43818;BME280;29868;47.360;18.984;2023-12-04T16:36:49;61290.00;;;-0.84;100.00
43818;BME280;29868;47.360;18.984;2023-12-04T16:39:14;61285.38;;;-0.91;100.00
43818;BME280;29868;47.360;18.984;2023-12-04T16:41:41;61297.81;;;-0.82;100.00
43818;BME280;29868;47.360;18.984;2023-12-04T16:44:06;61287.25;;;-0.87;100.00
43818;BME280;29868;47.360;18.984;2023-12-04T16:46:32;61273.78;;;-1.02;100.00
43818;BME280;29868;47.360;18.984;2023-12-04T16:48:57;61278.09;;;-0.93;100.00
43818;BME280;29868;47.360;18.984;2023-12-04T16:51:24;61275.66;;;-0.98;100.00
43818;BME280;29868;47.360;18.984;2023-12-04T16:53:49;61271.81;;;-1.01;100.00
43818;BME280;29868;47.360;18.984;2023-12-04T16:56:14;61282.28;;;-0.91;100.00
43818;BME280;29868;47.360;18.984;2023-12-04T16:58:40;61280.94;;;-0.95;100.00
43818;BME280;29868;47.360;18.984;2023-12-04T17:01:07;61283.94;;;-0.90;100.00
43818;BME280;29868;47.360;18.984;2023-12-04T17:03:32;61271.47;;;-0.99;100.00
43818;BME280;29868;47.360;18.984;2023-12-04T17:05:58;61267.06;;;-1.03;100.00
43818;BME280;29868;47.360;18.984;2023-12-04T17:08:23;61265.72;;;-1.07;100.00
43818;BME280;29868;47.360;18.984;2023-12-04T17:10:49;61274.88;;;-1.01;100.00
43818;BME280;29868;47.360;18.984;2023-12-04T17:13:14;61274.34;;;-1.01;100.00
43818;BME280;29868;47.360;18.984;2023-12-04T17:15:39;61271.03;;;-1.04;100.00
43818;BME280;29868;47.360;18.984;2023-12-04T17:18:06;61267.41;;;-1.05;100.00
43818;BME280;29868;47.360;18.984;2023-12-04T17:20:36;61266.28;;;-1.06;100.00
43818;BME280;29868;47.360;18.984;2023-12-04T17:23:02;61264.41;;;-1.10;100.00
43818;BME280;29868;47.360;18.984;2023-12-04T17:25:29;61265.72;;;-1.07;100.00
43818;BME280;29868;47.360;18.984;2023-12-04T17:27:55;61274.09;;;-1.04;100.00
43818;BME280;29868;47.360;18.984;2023-12-04T17:30:21;61272.34;;;-1.01;100.00
43818;BME280;29868;47.360;18.984;2023-12-04T17:32:46;61274.66;;;-1.03;100.00
43818;BME280;29868;47.360;18.984;2023-12-04T17:35:13;61266.84;;;-1.06;100.00
43818;BME280;29868;47.360;18.984;2023-12-04T17:37:39;61265.66;;;-1.02;100.00
43818;BME280;29868;47.360;18.984;2023-12-04T17:40:05;61261.88;;;-1.10;100.00
43818;BME280;29868;47.360;18.984;2023-12-04T17:42:31;61260.47;;;-1.09;100.00
43818;BME280;29868;47.360;18.984;2023-12-04T17:44:57;61260.47;;;-1.09;100.00
43818;BME280;29868;47.360;18.984;2023-12-04T17:47:22;61259.03;;;-1.08;100.00
43818;BME280;29868;47.360;18.984;2023-12-04T17:49:47;61262.13;;;-1.08;100.00
43818;BME280;29868;47.360;18.984;2023-12-04T17:52:13;61264.09;;;-1.08;100.00
43818;BME280;29868;47.360;18.984;2023-12-04T17:54:38;61264.88;;;-1.05;100.00
43818;BME280;29868;47.360;18.984;2023-12-04T17:57:04;61270.38;;;-1.00;100.00
43818;BME280;29868;47.360;18.984;2023-12-04T17:59:30;61274.34;;;-1.01;100.00
43818;BME280;29868;47.360;18.984;2023-12-04T18:01:55;61281.81;;;-0.96;100.00
43818;BME280;29868;47.360;18.984;2023-12-04T18:04:21;61275.13;;;-0.98;100.00
43818;BME280;29868;47.360;18.984;2023-12-04T18:06:46;61269.28;;;-1.01;100.00
43818;BME280;29868;47.360;18.984;2023-12-04T18:09:12;61274.88;;;-1.01;100.00
43818;BME280;29868;47.360;18.984;2023-12-04T18:11:38;61276.75;;;-0.96;100.00
43818;BME280;29868;47.360;18.984;2023-12-04T18:14:03;61273.44;;;-1.00;100.00
43818;BME280;29868;47.360;18.984;2023-12-04T18:16:30;61266.53;;;-1.04;100.00
43818;BME280;29868;47.360;18.984;2023-12-04T18:18:56;61270.72;;;-1.02;100.00
43818;BME280;29868;47.360;18.984;2023-12-04T18:21:21;61265.97;;;-1.04;100.00
43818;BME280;29868;47.360;18.984;2023-12-04T18:23:46;61274.56;;;-0.99;100.00
43818;BME280;29868;47.360;18.984;2023-12-04T18:26:14;61276.75;;;-0.96;100.00
43818;BME280;29868;47.360;18.984;2023-12-04T18:28:40;61271.47;;;-0.99;100.00
43818;BME280;29868;47.360;18.984;2023-12-04T18:31:06;61271.03;;;-1.04;100.00
43818;BME280;29868;47.360;18.984;2023-12-04T18:33:32;61269.28;;;-1.01;100.00
43818;BME280;29868;47.360;18.984;2023-12-04T18:36:04;61267.72;;;-1.07;100.00
43818;BME280;29868;47.360;18.984;2023-12-04T18:38:48;61270.72;;;-1.02;100.00
43818;BME280;29868;47.360;18.984;2023-12-04T18:41:15;61267.06;;;-1.03;100.00
43818;BME280;29868;47.360;18.984;2023-12-04T18:43:40;61257.16;;;-1.12;100.00
43818;BME280;29868;47.360;18.984;2023-12-04T18:46:07;61248.97;;;-1.25;100.00
43818;BME280;29868;47.360;18.984;2023-12-04T18:48:34;61245.34;;;-1.26;100.00
43818;BME280;29868;47.360;18.984;2023-12-04T18:51:01;61245.34;;;-1.26;100.00
43818;BME280;29868;47.360;18.984;2023-12-04T18:53:27;61249.75;;;-1.22;100.00
43818;BME280;29868;47.360;18.984;2023-12-04T18:55:52;61247.88;;;-1.26;100.00
43818;BME280;29868;47.360;18.984;2023-12-04T18:58:18;61250.88;;;-1.20;100.00
43818;BME280;29868;47.360;18.984;2023-12-04T19:00:43;61259.44;;;-1.15;100.00
43818;BME280;29868;47.360;18.984;2023-12-04T19:03:09;61255.59;;;-1.18;100.00
43818;BME280;29868;47.360;18.984;2023-12-04T19:05:35;61252.75;;;-1.16;100.00
43818;BME280;29868;47.360;18.984;2023-12-04T19:08:01;61255.28;;;-1.16;100.00
43818;BME280;29868;47.360;18.984;2023-12-04T19:10:29;61259.69;;;-1.12;100.00
43818;BME280;29868;47.360;18.984;2023-12-04T19:12:54;61254.94;;;-1.14;100.00
43818;BME280;29868;47.360;18.984;2023-12-04T19:15:19;61253.84;;;-1.15;100.00
43818;BME280;29868;47.360;18.984;2023-12-04T19:17:45;61267.16;;;-1.08;100.00
43818;BME280;29868;47.360;18.984;2023-12-04T19:20:10;61266.38;;;-1.11;100.00
43818;BME280;29868;47.360;18.984;2023-12-04T19:22:36;61259.69;;;-1.12;100.00
43818;BME280;29868;47.360;18.984;2023-12-04T19:25:01;61257.16;;;-1.12;100.00
43818;BME280;29868;47.360;18.984;2023-12-04T19:27:27;61269.94;;;-1.05;100.00
43818;BME280;29868;47.360;18.984;2023-12-04T19:29:52;61261.31;;;-1.11;100.00
43818;BME280;29868;47.360;18.984;2023-12-04T19:32:18;61250.53;;;-1.18;100.00
43818;BME280;29868;47.360;18.984;2023-12-04T19:34:43;61255.28;;;-1.16;100.00
43818;BME280;29868;47.360;18.984;2023-12-04T19:37:09;61256.59;;;-1.13;100.00
43818;BME280;29868;47.360;18.984;2023-12-04T19:39:38;61259.44;;;-1.15;100.00
43818;BME280;29868;47.360;18.984;2023-12-04T19:42:05;61263.22;;;-1.07;100.00
43818;BME280;29868;47.360;18.984;2023-12-04T19:44:31;61265.44;;;-1.05;100.00
43818;BME280;29868;47.360;18.984;2023-12-04T19:46:56;61263.00;;;-1.09;100.00
43818;BME280;29868;47.360;18.984;2023-12-04T19:49:23;61249.97;;;-1.19;100.00
43818;BME280;29868;47.360;18.984;2023-12-04T19:51:48;61259.91;;;-1.10;100.00
43818;BME280;29868;47.360;18.984;2023-12-04T19:54:14;61261.09;;;-1.13;100.00
43818;BME280;29868;47.360;18.984;2023-12-04T19:56:43;61246.47;;;-1.25;100.00
43818;BME280;29868;47.360;18.984;2023-12-04T19:59:09;61252.50;;;-1.19;100.00
43818;BME280;29868;47.360;18.984;2023-12-04T20:01:35;61252.28;;;-1.22;100.00
43818;BME280;29868;47.360;18.984;2023-12-04T20:04:00;61250.06;;;-1.24;100.00
43818;BME280;29868;47.360;18.984;2023-12-04T20:06:25;61237.88;;;-1.30;100.00
43818;BME280;29868;47.360;18.984;2023-12-04T20:08:51;61237.88;;;-1.30;100.00
43818;BME280;29868;47.360;18.984;2023-12-04T20:11:16;61236.53;;;-1.34;100.00
43818;BME280;29868;47.360;18.984;2023-12-04T20:13:42;61224.09;;;-1.43;100.00
43818;BME280;29868;47.360;18.984;2023-12-04T20:16:11;61217.47;;;-1.49;100.00
43818;BME280;29868;47.360;18.984;2023-12-04T20:18:37;61229.69;;;-1.42;100.00
43818;BME280;29868;47.360;18.984;2023-12-04T20:21:03;61231.34;;;-1.41;100.00
43818;BME280;29868;47.360;18.984;2023-12-04T20:23:28;61235.75;;;-1.37;100.00
43818;BME280;29868;47.360;18.984;2023-12-04T20:25:54;61234.34;;;-1.36;100.00
43818;BME280;29868;47.360;18.984;2023-12-04T20:28:19;61232.91;;;-1.35;100.00
43818;BME280;29868;47.360;18.984;2023-12-04T20:30:46;61226.06;;;-1.43;100.00
43818;BME280;29868;47.360;18.984;2023-12-04T20:33:13;61227.72;;;-1.42;100.00
43818;BME280;29868;47.360;18.984;2023-12-04T20:35:48;61229.69;;;-1.42;100.00
43818;BME280;29868;47.360;18.984;2023-12-04T20:38:14;61227.63;;;-1.37;100.00
43818;BME280;29868;47.360;18.984;2023-12-04T20:40:44;61223.63;;;-1.48;100.00
43818;BME280;29868;47.360;18.984;2023-12-04T20:43:11;61210.31;;;-1.56;100.00
43818;BME280;29868;47.360;18.984;2023-12-04T20:45:37;61218.66;;;-1.53;100.00
43818;BME280;29868;47.360;18.984;2023-12-04T20:48:03;61225.50;;;-1.44;100.00
43818;BME280;29868;47.360;18.984;2023-12-04T20:50:33;61222.06;;;-1.54;100.00
43818;BME280;29868;47.360;18.984;2023-12-04T20:52:59;61220.31;;;-1.51;100.00
43818;BME280;29868;47.360;18.984;2023-12-04T20:55:25;61220.53;;;-1.49;100.00
43818;BME280;29868;47.360;18.984;2023-12-04T20:57:50;61227.72;;;-1.42;100.00
43818;BME280;29868;47.360;18.984;2023-12-04T21:00:16;61225.81;;;-1.46;100.00
43818;BME280;29868;47.360;18.984;2023-12-04T21:02:41;61221.09;;;-1.48;100.00
43818;BME280;29868;47.360;18.984;2023-12-04T21:05:07;61215.81;;;-1.51;100.00
43818;BME280;29868;47.360;18.984;2023-12-04T21:07:33;61220.78;;;-1.46;100.00
43818;BME280;29868;47.360;18.984;2023-12-04T21:09:58;61225.50;;;-1.44;100.00
43818;BME280;29868;47.360;18.984;2023-12-04T21:12:24;61227.16;;;-1.42;100.00